Algona, IA

9:24 AM CST on December 21, 2014 (GMT -0600)
Algona Municipal | Change Station
CLOSE
Current Station
Airport
Location: Algona,
Elevation: 1220 ft
Nearby Weather Stations

Elev 1220 ft 43.08 °N, 94.27 °W | Updated 9 minutes ago

Fog
Fog
36 °F
Feels Like 25 °F
N
20
Wind Variable Wind from South
Gusts 26 mph

Today
High -- | Low -- °F
--% Chance of Precip.
Yesterday
High -- | Low -- °F
Precip. -- in
7:45 AM 4:44 PM
Waning Crescent, 0% visible
Pressure 29.85 in
Visibility 0.5 miles
Clouds Overcast 200 ft
Windchill 25 °F
Dew Point 36 °F
Humidity 100%
Rainfall 0.00 in
Snow Depth Not available.
UV 0 out of 12
Pollen .10 out of 12
Air Quality Not available.
Flu Activity Not available.
METAR KAXA 211515Z AUTO 18017G23KT 1/2SM FG OVC002 02/02 A2985 RMK AO2

More Conditions Fewer Conditions

Pressure 29.85 in
Visibility 0.5 miles
Clouds Overcast 200 ft
Windchill 25 °F
Dew Point 36 °F
Humidity 100%
Rainfall 0.00 in
Snow Depth Not available.
UV 0 out of 12
Pollen .10 out of 12
Air Quality Not available.
Flu Activity Not available.
METAR KAXA 211515Z AUTO 18017G23KT 1/2SM FG OVC002 02/02 A2985 RMK AO2

More Conditions Fewer Conditions

10-Day Weather Forecast

Almanac

Astronomy

Dec. 21, 2014 Rise Set
Actual Time
Civil Twilight
Nautical Twilight
Astronomical Twilight
Moon
Length of Visible Light
Length of Day
Tomorrow will be .
, % of the Moon is Illuminated

Today's Extremes

State Highs State Lows

Community

WunderPhotos

Upload Photos

1,779,412 photos uploaded!

WunderBlogs® & News

Nearby

Air Quality

  Air Quality AQ Index Pollutant
Not available.

Snow Depth

Station Depth Elevation

Earthquake Activity

City Distance Mag. Time & Date
Minimum magnitude displayed is 2.5.

Coastal Water Temperatures

Place Temperature

Nearby Weather Stations